Aviation

Metar/Speci

station

VRMH

SPECI VRMH 061556Z 12009KT 6000 -SHRA SCT017 SCT018CB 25/24 Q1012 RESHRA CB E,W,OVHD=

39 minutes ago

VRMM

METAR VRMM 061600Z 20006KT 99999 SCT018 BKN270 29/24 Q1011 NOSIG=

38 minutes ago

VRMK

METAR VRMK 061600Z 22005KT 9999 FEW018TCU SCT130 BKN270 28/25 Q1011=

39 minutes ago

VRMT

METAR VRMT 061600Z 22007KT 9999 FEW018 FEW019CB BKN270 28/24 Q1011 CB N=

38 minutes ago

VRMG

METAR VRMG 061600Z 26012KT 9999 FEW017 FEW018CB SCT110 BKN260 27/24 Q1012 CB N,E,S TEMPO 4000 SHRA=

39 minutes ago

Synop

station

43533

AAXX 06154 43533 41459 80908 10270 20245 30109 40111 78022 859// 333 59005 83817 82918=

1 hour ago

43555

AAXX 06154 43555 42465 72306 10285 20247 30105 40107 84202 333 59010 84818 87067=

1 hour ago

43577

AAXX 06154 43577 42464 52005 10275 20246 30110 40112 82932 333 59011 82818 81919 85077=

1 hour ago

43588

AAXX 06154 43588 42462 71807 10270 20235 30109 40110 82238 333 59009 82818 87276=

1 hour ago

43599

AAXX 06154 43599 41460 53404 10250 20223 30111 40113 78082 83902 333 59008 82817 81918 85076=

1 hour ago

Tafs

station

VRMH

VRMH 061100Z 0612/0718 09007KT 9999 FEW017TCU BKN110 TEMPO 0612/0618 4000 TSRA FEW017CB=

5 hours ago

VRMM

VRMM 061100Z 0612/0718 21009KT 9999 FEW018TCU SCT120 TEMPO 0613/06197 5000 TSRA FEW018CB=

5 hours ago

VRMK

VRMK 061100Z 0612/0712 22008KT 9999 FEW018TCU TEMPO 0612/0618 5000 TSRA FEW018CB=

5 hours ago

VRMT

VRMT 061100Z 0612/0712 21010KT 9999 FEW018TCU TEMPO 0612/0618 5000 TSRA FEW018CB=

5 hours ago

VRMG

VRMG 061100Z 0612/0718 25011KT 9999 FEW017TCU TEMPO 0612/0618 5000 SHRA FEW017CB=

5 hours ago

Sigmet

Flight folders

No flight folder available at the moment.